Terminal Aerodrome Forecast
Issued by NWS Louisville, KY

Home | Current Version | Previous Version | Text Only | Print | Product List | Glossary On
Versions: 1 2 3 4 5 6 7 8 9 10 11 12 13 14 15 16 17 18 19 20
000
FTUS43 KLMK 251700
TAFBWG
TAF
KBWG 251726Z 2518/2618 21011G16KT P6SM BKN080
     FM252000 22008KT 5SM -SHRA BR BKN018
     FM260000 24006KT 4SM -SHRA BR BKN009
     FM260700 33012G18KT 5SM BR VCSH BKN012 OVC018
     FM261200 31010KT P6SM BKN015=

USA.gov is the U.S. government's official web portal to all federal, state and local government web resources and services.